Historyczne dane pomiarowe

Dodano dane terminowe – wersja testowa.

Dane z okresu 1951-2019

Wersja bazy: 1.34 [2019-03-16, lista zmian], aktualizacja planowana na 2019-04-15

Dane meteo z obszaru Polski uzyskane na podstawie danych udostępnionych przez Instytut Meteorologii i Gospodarki Wodnej – Państwowy Instytut Badawczy.

 

Wybierz Datę:    

       

TemperaturaWilgotnośćWiatrCiśnienieOpadyŚniegCzas trwania zjawisk
 Stacja t tx tn tng RH VA  wxwx mslp ppp RRR   cm mm wxwxwxwxwxwxwx
1972-04-17 3.9 5.4 3.2- 97.0- 8.0 4.0---- 0.0------------
1972-04-18 4.5 8.7 2.8- 93.0- 7.3 4.7---- 0.9------------
1972-04-19 3.7 5.7 2.4- 86.8- 6.3 3.3---- 0.0------------
1972-04-20 3.3 6.5 1.6- 83.0- 2.3 4.7---- 0.0------------
1972-04-21 3.8 6.0 1.5- 87.8- 0.7 1.7---- 0.0------------
1972-04-22 4.3 6.7 1.5- 80.8- 3.0 2.0---- 0.0------------
1972-04-23 4.7 7.6 0.7- 85.3- 2.0 2.7---- 0.0------------
1972-04-24 2.6 5.3 0.1- 70.0- 5.0 9.3---- 0.9------------
1972-04-25 0.3 3.0 -1.5- 76.0- 5.0 4.0---- 0.0------------
1972-04-26 4.1 9.0 -1.4- 65.8- 7.7 6.3---- 0.0------------
1972-04-27 5.7 7.0 3.0- 82.3- 0.3 6.7---- 0.0------------
1972-04-28 4.2 7.5 -1.6- 77.8- 0.3 4.0---- 0.0------------
1972-04-29 5.4 11.8 -0.3- 74.0- 1.3 2.7---- 0.0------------
1972-04-30 11.7 19.3 4.0- 50.8- 1.7 6.0---- 0.0------------
1972-05-01 11.2 15.7 7.8- 62.0- 0.0 4.0---- 0.0------------
1972-05-02 10.9 12.8 7.0- 63.0- 1.3 4.0---- 0.0------------
1972-05-03 9.3 12.2 7.5- 68.0- 3.3 2.7---- 0.2------------
1972-05-04 8.4 10.9 6.2- 88.8- 7.3 2.7---- 0.0------------
1972-05-05 10.8 16.0 5.4- 79.8- 1.7 1.7---- 0.0------------
1972-05-06 7.1 11.9 4.6- 89.3- 8.0 3.0---- 1.5------------
1972-05-07 5.4 8.2 3.6- 94.3- 6.7 3.3---- 0.0------------
1972-05-08 6.2 8.7 3.3- 87.5- 2.3 1.3---- 0.0------------
1972-05-09 5.8 9.9 3.5- 86.8- 2.7 2.7---- 0.0------------
1972-05-10 5.8 9.4 3.7- 88.5- 2.0 2.7---- 7.0------------
1972-05-11 5.8 7.4 4.7- 89.0- 7.3 5.7---- 0.3------------
1972-05-12 5.9 8.9 4.1- 82.5- 7.3 6.3---- 25.7------------
1972-05-13 7.5 10.1 4.5- 88.3- 7.7 4.0---- 7.0------------
1972-05-14 6.3 8.2 4.4- 96.0- 7.3 4.0---- 0.2------------
1972-05-15 4.7 6.0 3.6- 96.5- 7.7 3.3---- 0.0------------
1972-05-16 5.2 7.0 4.0- 95.3- 8.0 3.7---- 14.0------------
221.2 ms

 

Źródłem pochodzenia danych jest Instytut Meteorologii i Gospodarki Wodnej – Państwowy Instytut Badawczy. Dane Instytutu Meteorologii i Gospodarki Wodnej – Państwowego Instytutu Badawczego zostały przetworzone.

Dane źródłowe można odnaleźć na stronie https://dane.imgw.pl